sensor_id;sensor_type;location;lat;lon;timestamp;pressure;altitude;pressure_sealevel;temperature;humidity
75538;BME280;64121;48.666;8.114;2023-02-11T00:01:46;102239.13;;;-3.10;91.83
75538;BME280;64121;48.666;8.114;2023-02-11T00:04:12;102239.94;;;-3.16;91.54
75538;BME280;64121;48.666;8.114;2023-02-11T00:06:37;102246.25;;;-3.09;92.87
75538;BME280;64121;48.666;8.114;2023-02-11T00:09:03;102248.97;;;-3.16;93.31
75538;BME280;64121;48.666;8.114;2023-02-11T00:11:29;102251.44;;;-3.21;93.51
75538;BME280;64121;48.666;8.114;2023-02-11T00:13:56;102254.56;;;-3.24;92.90
75538;BME280;64121;48.666;8.114;2023-02-11T00:16:21;102256.44;;;-3.24;92.78
75538;BME280;64121;48.666;8.114;2023-02-11T00:18:47;102258.72;;;-3.28;93.33
75538;BME280;64121;48.666;8.114;2023-02-11T00:21:14;102260.38;;;-3.33;93.60
75538;BME280;64121;48.666;8.114;2023-02-11T00:23:40;102260.56;;;-3.35;93.98
75538;BME280;64121;48.666;8.114;2023-02-11T00:26:11;102258.50;;;-3.33;93.31
75538;BME280;64121;48.666;8.114;2023-02-11T00:28:36;102268.34;;;-3.32;93.16
75538;BME280;64121;48.666;8.114;2023-02-11T00:31:03;102261.44;;;-3.34;93.29
75538;BME280;64121;48.666;8.114;2023-02-11T00:33:28;102254.75;;;-3.32;93.91
75538;BME280;64121;48.666;8.114;2023-02-11T00:35:53;102254.09;;;-3.34;94.81
75538;BME280;64121;48.666;8.114;2023-02-11T00:38:19;102252.81;;;-3.38;95.39
75538;BME280;64121;48.666;8.114;2023-02-11T00:40:44;102246.09;;;-3.42;94.49
75538;BME280;64121;48.666;8.114;2023-02-11T00:43:09;102229.31;;;-3.46;93.85
75538;BME280;64121;48.666;8.114;2023-02-11T00:45:35;102237.09;;;-3.43;94.29
75538;BME280;64121;48.666;8.114;2023-02-11T00:48:02;102239.16;;;-3.45;94.21
75538;BME280;64121;48.666;8.114;2023-02-11T00:50:27;102238.72;;;-3.48;94.15
75538;BME280;64121;48.666;8.114;2023-02-11T00:52:52;102224.94;;;-3.47;93.47
75538;BME280;64121;48.666;8.114;2023-02-11T00:55:18;102232.69;;;-3.44;93.84
75538;BME280;64121;48.666;8.114;2023-02-11T00:57:43;102237.50;;;-3.46;94.14
75538;BME280;64121;48.666;8.114;2023-02-11T01:00:11;102229.31;;;-3.46;94.15
75538;BME280;64121;48.666;8.114;2023-02-11T01:02:37;102228.88;;;-3.49;93.56
75538;BME280;64121;48.666;8.114;2023-02-11T01:05:04;102224.94;;;-3.47;92.89
75538;BME280;64121;48.666;8.114;2023-02-11T01:07:30;102218.25;;;-3.44;93.24
75538;BME280;64121;48.666;8.114;2023-02-11T01:09:55;102223.25;;;-3.48;93.94
75538;BME280;64121;48.666;8.114;2023-02-11T01:12:21;102215.50;;;-3.51;94.20
75538;BME280;64121;48.666;8.114;2023-02-11T01:14:46;102222.81;;;-3.51;94.44
75538;BME280;64121;48.666;8.114;2023-02-11T01:17:12;102230.38;;;-3.47;95.02
75538;BME280;64121;48.666;8.114;2023-02-11T01:19:37;102223.69;;;-3.44;95.00
75538;BME280;64121;48.666;8.114;2023-02-11T01:22:04;102224.94;;;-3.40;94.29
75538;BME280;64121;48.666;8.114;2023-02-11T01:24:29;102225.56;;;-3.45;93.28
75538;BME280;64121;48.666;8.114;2023-02-11T01:26:55;102220.53;;;-3.48;93.52
75538;BME280;64121;48.666;8.114;2023-02-11T01:29:21;102216.56;;;-3.45;93.91
75538;BME280;64121;48.666;8.114;2023-02-11T01:31:46;102221.56;;;-3.49;93.07
75538;BME280;64121;48.666;8.114;2023-02-11T01:34:12;102215.28;;;-3.49;93.58
75538;BME280;64121;48.666;8.114;2023-02-11T01:36:37;102211.72;;;-3.50;94.32
75538;BME280;64121;48.666;8.114;2023-02-11T01:39:04;102211.72;;;-3.50;93.63
75538;BME280;64121;48.666;8.114;2023-02-11T01:41:29;102197.72;;;-3.47;93.29
75538;BME280;64121;48.666;8.114;2023-02-11T01:43:55;102192.69;;;-3.43;93.39
75538;BME280;64121;48.666;8.114;2023-02-11T01:46:32;102187.91;;;-3.41;92.18
75538;BME280;64121;48.666;8.114;2023-02-11T01:49:02;102180.63;;;-3.34;91.53
75538;BME280;64121;48.666;8.114;2023-02-11T01:51:31;102174.50;;;-3.36;92.61
75538;BME280;64121;48.666;8.114;2023-02-11T01:53:59;102168.22;;;-3.37;92.41
75538;BME280;64121;48.666;8.114;2023-02-11T01:56:27;102168.91;;;-3.34;93.17
75538;BME280;64121;48.666;8.114;2023-02-11T01:59:00;102173.09;;;-3.32;93.95
75538;BME280;64121;48.666;8.114;2023-02-11T02:01:27;102163.03;;;-3.31;93.57
75538;BME280;64121;48.666;8.114;2023-02-11T02:03:56;102168.47;;;-3.31;94.04
75538;BME280;64121;48.666;8.114;2023-02-11T02:06:29;102169.13;;;-3.29;94.38
75538;BME280;64121;48.666;8.114;2023-02-11T02:09:01;102176.44;;;-3.30;93.22
75538;BME280;64121;48.666;8.114;2023-02-11T02:11:29;102167.28;;;-3.16;93.36
75538;BME280;64121;48.666;8.114;2023-02-11T02:13:54;102171.88;;;-3.16;93.95
75538;BME280;64121;48.666;8.114;2023-02-11T02:16:21;102171.91;;;-3.03;93.76
75538;BME280;64121;48.666;8.114;2023-02-11T02:18:54;102173.16;;;-3.06;93.50
75538;BME280;64121;48.666;8.114;2023-02-11T02:22:02;102175.53;;;-2.89;94.31
75538;BME280;64121;48.666;8.114;2023-02-11T02:24:59;102164.00;;;-2.91;93.48
75538;BME280;64121;48.666;8.114;2023-02-11T02:27:45;102160.44;;;-2.85;94.21
75538;BME280;64121;48.666;8.114;2023-02-11T02:30:49;102166.94;;;-2.86;93.93
75538;BME280;64121;48.666;8.114;2023-02-11T02:33:28;102150.59;;;-2.80;94.05
75538;BME280;64121;48.666;8.114;2023-02-11T02:36:06;102136.97;;;-2.86;93.71
75538;BME280;64121;48.666;8.114;2023-02-11T02:38:36;102151.88;;;-2.62;94.24
75538;BME280;64121;48.666;8.114;2023-02-11T02:41:06;102140.97;;;-2.69;94.69
75538;BME280;64121;48.666;8.114;2023-02-11T02:43:33;102143.28;;;-2.72;94.21
75538;BME280;64121;48.666;8.114;2023-02-11T02:46:12;102148.53;;;-2.64;94.98
75538;BME280;64121;48.666;8.114;2023-02-11T02:48:39;102146.84;;;-2.65;94.13
75538;BME280;64121;48.666;8.114;2023-02-11T02:51:15;102146.22;;;-2.61;94.35
75538;BME280;64121;48.666;8.114;2023-02-11T02:53:54;102149.34;;;-2.64;94.22
75538;BME280;64121;48.666;8.114;2023-02-11T02:56:25;102144.75;;;-2.70;93.15
75538;BME280;64121;48.666;8.114;2023-02-11T02:59:10;102138.25;;;-2.69;94.00
75538;BME280;64121;48.666;8.114;2023-02-11T03:01:49;102143.50;;;-2.74;94.72
75538;BME280;64121;48.666;8.114;2023-02-11T03:04:22;102147.69;;;-2.78;94.93
75538;BME280;64121;48.666;8.114;2023-02-11T03:06:54;102141.16;;;-2.90;95.38
75538;BME280;64121;48.666;8.114;2023-02-11T03:09:24;102145.97;;;-2.86;95.36
75538;BME280;64121;48.666;8.114;2023-02-11T03:11:52;102144.94;;;-2.91;94.64
75538;BME280;64121;48.666;8.114;2023-02-11T03:14:18;102133.63;;;-2.95;94.50
75538;BME280;64121;48.666;8.114;2023-02-11T03:16:46;102132.78;;;-2.95;94.60
75538;BME280;64121;48.666;8.114;2023-02-11T03:19:17;102133.38;;;-3.00;95.33
75538;BME280;64121;48.666;8.114;2023-02-11T03:21:46;102135.47;;;-3.02;94.56
75538;BME280;64121;48.666;8.114;2023-02-11T03:24:15;102125.00;;;-3.05;95.04
75538;BME280;64121;48.666;8.114;2023-02-11T03:26:47;102134.22;;;-3.06;95.32
75538;BME280;64121;48.666;8.114;2023-02-11T03:29:17;102135.47;;;-3.09;94.89
75538;BME280;64121;48.666;8.114;2023-02-11T03:31:54;102144.47;;;-3.08;95.18
75538;BME280;64121;48.666;8.114;2023-02-11T03:34:26;102146.16;;;-3.07;95.37
75538;BME280;64121;48.666;8.114;2023-02-11T03:36:58;102146.53;;;-3.17;94.98
75538;BME280;64121;48.666;8.114;2023-02-11T03:39:28;102140.28;;;-3.11;94.96
75538;BME280;64121;48.666;8.114;2023-02-11T03:41:56;102140.47;;;-3.12;95.29
75538;BME280;64121;48.666;8.114;2023-02-11T03:44:26;102150.06;;;-3.23;94.68
75538;BME280;64121;48.666;8.114;2023-02-11T03:46:53;102151.97;;;-3.23;95.01
75538;BME280;64121;48.666;8.114;2023-02-11T03:49:20;102154.25;;;-3.27;94.24
75538;BME280;64121;48.666;8.114;2023-02-11T03:51:49;102136.44;;;-3.29;94.12
75538;BME280;64121;48.666;8.114;2023-02-11T03:54:20;102114.69;;;-3.23;93.46
75538;BME280;64121;48.666;8.114;2023-02-11T03:56:51;102122.69;;;-3.08;94.02
75538;BME280;64121;48.666;8.114;2023-02-11T03:59:17;102115.94;;;-3.19;94.27
75538;BME280;64121;48.666;8.114;2023-02-11T04:01:42;102116.78;;;-3.25;95.13
75538;BME280;64121;48.666;8.114;2023-02-11T04:04:08;102111.13;;;-3.23;95.00
75538;BME280;64121;48.666;8.114;2023-02-11T04:06:33;102126.84;;;-3.19;95.20
75538;BME280;64121;48.666;8.114;2023-02-11T04:08:58;102122.03;;;-3.17;94.87
75538;BME280;64121;48.666;8.114;2023-02-11T04:11:25;102121.44;;;-3.12;94.56
75538;BME280;64121;48.666;8.114;2023-02-11T04:18:46;102126.25;;;-3.01;95.54
75538;BME280;64121;48.666;8.114;2023-02-11T04:21:11;102141.16;;;-2.97;95.91
75538;BME280;64121;48.666;8.114;2023-02-11T04:23:36;102146.81;;;-2.92;96.47
75538;BME280;64121;48.666;8.114;2023-02-11T04:26:02;102150.16;;;-2.83;96.31
75538;BME280;64121;48.666;8.114;2023-02-11T04:28:29;102151.84;;;-2.82;95.72
75538;BME280;64121;48.666;8.114;2023-02-11T04:30:55;102155.19;;;-2.80;95.71
75538;BME280;64121;48.666;8.114;2023-02-11T04:33:20;102157.50;;;-2.84;95.19
75538;BME280;64121;48.666;8.114;2023-02-11T04:35:45;102164.22;;;-2.80;94.95
75538;BME280;64121;48.666;8.114;2023-02-11T04:38:11;102154.16;;;-2.86;94.23
75538;BME280;64121;48.666;8.114;2023-02-11T04:40:36;102162.53;;;-2.87;94.36
75538;BME280;64121;48.666;8.114;2023-02-11T04:43:01;102163.16;;;-2.92;94.85
75538;BME280;64121;48.666;8.114;2023-02-11T04:45:28;102156.44;;;-2.96;95.06
75538;BME280;64121;48.666;8.114;2023-02-11T04:47:53;102153.28;;;-2.99;94.60
75538;BME280;64121;48.666;8.114;2023-02-11T04:50:19;102140.94;;;-2.95;94.76
75538;BME280;64121;48.666;8.114;2023-02-11T04:52:44;102133.16;;;-2.98;94.90
75538;BME280;64121;48.666;8.114;2023-02-11T04:55:11;102118.31;;;-2.89;95.60
75538;BME280;64121;48.666;8.114;2023-02-11T04:57:36;102121.50;;;-2.72;95.15
75538;BME280;64121;48.666;8.114;2023-02-11T05:00:02;102107.03;;;-2.66;95.09
75538;BME280;64121;48.666;8.114;2023-02-11T05:02:29;102118.13;;;-2.68;95.66
75538;BME280;64121;48.666;8.114;2023-02-11T05:04:54;102114.56;;;-2.62;95.35
75538;BME280;64121;48.666;8.114;2023-02-11T05:07:19;102126.72;;;-2.64;95.50
75538;BME280;64121;48.666;8.114;2023-02-11T05:09:45;102120.03;;;-2.68;95.53
75538;BME280;64121;48.666;8.114;2023-02-11T05:12:10;102117.50;;;-2.70;95.78
75538;BME280;64121;48.666;8.114;2023-02-11T05:14:35;102113.72;;;-2.69;95.68
75538;BME280;64121;48.666;8.114;2023-02-11T05:17:01;102111.84;;;-2.68;95.18
75538;BME280;64121;48.666;8.114;2023-02-11T05:19:27;102116.88;;;-2.65;94.93
75538;BME280;64121;48.666;8.114;2023-02-11T05:21:53;102113.53;;;-2.67;94.72
75538;BME280;64121;48.666;8.114;2023-02-11T05:24:18;102104.09;;;-2.58;94.47
75538;BME280;64121;48.666;8.114;2023-02-11T05:26:44;102103.28;;;-2.59;94.24
75538;BME280;64121;48.666;8.114;2023-02-11T05:29:09;102100.13;;;-2.56;94.36
75538;BME280;64121;48.666;8.114;2023-02-11T05:31:34;102106.84;;;-2.58;94.52
75538;BME280;64121;48.666;8.114;2023-02-11T05:34:00;102106.84;;;-2.58;94.91
75538;BME280;64121;48.666;8.114;2023-02-11T05:36:26;102101.97;;;-2.63;94.81
75538;BME280;64121;48.666;8.114;2023-02-11T05:38:52;102105.75;;;-2.64;94.05
75538;BME280;64121;48.666;8.114;2023-02-11T05:41:17;102089.00;;;-2.67;94.65
75538;BME280;64121;48.666;8.114;2023-02-11T05:43:42;102098.00;;;-2.67;94.71
75538;BME280;64121;48.666;8.114;2023-02-11T05:46:08;102085.63;;;-2.63;94.53
75538;BME280;64121;48.666;8.114;2023-02-11T05:48:33;102071.19;;;-2.70;94.59
75538;BME280;64121;48.666;8.114;2023-02-11T05:50:58;102070.97;;;-2.62;95.24
75538;BME280;64121;48.666;8.114;2023-02-11T05:53:25;102076.03;;;-2.59;96.04
75538;BME280;64121;48.666;8.114;2023-02-11T05:55:50;102071.81;;;-2.61;95.65
75538;BME280;64121;48.666;8.114;2023-02-11T05:58:16;102067.22;;;-2.54;95.96
75538;BME280;64121;48.666;8.114;2023-02-11T06:00:41;102076.19;;;-2.47;96.09
75538;BME280;64121;48.666;8.114;2023-02-11T06:03:06;102065.09;;;-2.39;95.51
75538;BME280;64121;48.666;8.114;2023-02-11T06:05:32;102064.66;;;-2.29;95.13
75538;BME280;64121;48.666;8.114;2023-02-11T06:07:57;102065.06;;;-2.26;94.62
75538;BME280;64121;48.666;8.114;2023-02-11T06:10:25;102061.72;;;-2.21;94.49
75538;BME280;64121;48.666;8.114;2023-02-11T06:12:51;102070.91;;;-2.16;94.56
75538;BME280;64121;48.666;8.114;2023-02-11T06:15:16;102077.22;;;-2.15;94.84
75538;BME280;64121;48.666;8.114;2023-02-11T06:17:42;102081.63;;;-2.21;94.58
75538;BME280;64121;48.666;8.114;2023-02-11T06:20:08;102089.78;;;-2.14;94.89
75538;BME280;64121;48.666;8.114;2023-02-11T06:22:34;102088.53;;;-2.18;94.77
75538;BME280;64121;48.666;8.114;2023-02-11T06:24:59;102098.19;;;-2.16;95.01
75538;BME280;64121;48.666;8.114;2023-02-11T06:27:26;102100.28;;;-2.18;94.96
75538;BME280;64121;48.666;8.114;2023-02-11T06:29:51;102088.34;;;-2.17;95.55
75538;BME280;64121;48.666;8.114;2023-02-11T06:32:16;102102.59;;;-2.15;95.71
75538;BME280;64121;48.666;8.114;2023-02-11T06:34:42;102116.22;;;-2.01;95.34
75538;BME280;64121;48.666;8.114;2023-02-11T06:37:07;102128.78;;;-2.07;95.21
75538;BME280;64121;48.666;8.114;2023-02-11T06:39:33;102125.25;;;-2.14;95.10
75538;BME280;64121;48.666;8.114;2023-02-11T06:41:58;102125.06;;;-2.19;94.40
75538;BME280;64121;48.666;8.114;2023-02-11T06:44:25;102131.56;;;-2.20;94.90
75538;BME280;64121;48.666;8.114;2023-02-11T06:46:50;102138.06;;;-2.21;95.12
75538;BME280;64121;48.666;8.114;2023-02-11T06:49:15;102137.63;;;-2.25;94.99
75538;BME280;64121;48.666;8.114;2023-02-11T06:51:41;102126.94;;;-2.26;95.13
75538;BME280;64121;48.666;8.114;2023-02-11T06:54:06;102121.69;;;-2.21;94.94
75538;BME280;64121;48.666;8.114;2023-02-11T06:56:32;102111.81;;;-2.16;95.02
75538;BME280;64121;48.666;8.114;2023-02-11T06:58:57;102108.44;;;-2.11;94.84
75538;BME280;64121;48.666;8.114;2023-02-11T07:01:25;102110.56;;;-2.13;94.66
75538;BME280;64121;48.666;8.114;2023-02-11T07:03:51;102104.47;;;-2.15;94.60
75538;BME280;64121;48.666;8.114;2023-02-11T07:06:20;102096.50;;;-2.17;94.87
75538;BME280;64121;48.666;8.114;2023-02-11T07:08:47;102097.56;;;-2.18;94.96
75538;BME280;64121;48.666;8.114;2023-02-11T07:11:14;102100.50;;;-2.19;95.27
75538;BME280;64121;48.666;8.114;2023-02-11T07:13:40;102103.63;;;-2.09;94.97
75538;BME280;64121;48.666;8.114;2023-02-11T07:16:06;102111.19;;;-2.04;94.67
75538;BME280;64121;48.666;8.114;2023-02-11T07:18:33;102120.19;;;-1.97;94.84
75538;BME280;64121;48.666;8.114;2023-02-11T07:21:03;102117.66;;;-1.86;94.86
75538;BME280;64121;48.666;8.114;2023-02-11T07:23:28;102112.78;;;-1.77;94.89
75538;BME280;64121;48.666;8.114;2023-02-11T07:25:54;102111.69;;;-1.69;94.35
75538;BME280;64121;48.666;8.114;2023-02-11T07:28:19;102107.91;;;-1.62;93.89
75538;BME280;64121;48.666;8.114;2023-02-11T07:30:44;102120.44;;;-1.47;94.10
75538;BME280;64121;48.666;8.114;2023-02-11T07:33:10;102109.09;;;-1.51;93.51
75538;BME280;64121;48.666;8.114;2023-02-11T07:35:36;102112.44;;;-1.42;93.31
75538;BME280;64121;48.666;8.114;2023-02-11T07:38:02;102113.06;;;-1.40;93.05
75538;BME280;64121;48.666;8.114;2023-02-11T07:40:27;102123.53;;;-1.37;93.42
75538;BME280;64121;48.666;8.114;2023-02-11T07:42:52;102118.91;;;-1.30;93.40
75538;BME280;64121;48.666;8.114;2023-02-11T07:45:18;102115.72;;;-1.27;93.28
75538;BME280;64121;48.666;8.114;2023-02-11T07:47:43;102120.09;;;-1.19;92.83
75538;BME280;64121;48.666;8.114;2023-02-11T07:50:09;102110.84;;;-1.18;92.47
75538;BME280;64121;48.666;8.114;2023-02-11T07:52:35;102113.53;;;-1.12;92.23
75538;BME280;64121;48.666;8.114;2023-02-11T07:55:01;102126.09;;;-1.04;92.13
75538;BME280;64121;48.666;8.114;2023-02-11T07:57:26;102144.00;;;-0.77;91.80
75538;BME280;64121;48.666;8.114;2023-02-11T07:59:52;102157.81;;;-0.65;91.19
75538;BME280;64121;48.666;8.114;2023-02-11T08:02:17;102161.66;;;-0.73;91.47
75538;BME280;64121;48.666;8.114;2023-02-11T08:04:44;102161.00;;;-0.75;91.73
75538;BME280;64121;48.666;8.114;2023-02-11T08:07:09;102154.22;;;-0.66;91.55
75538;BME280;64121;48.666;8.114;2023-02-11T08:09:36;102162.03;;;-0.69;91.45
75538;BME280;64121;48.666;8.114;2023-02-11T08:12:02;102162.91;;;-0.75;92.15
75538;BME280;64121;48.666;8.114;2023-02-11T08:14:27;102162.72;;;-0.80;92.04
75538;BME280;64121;48.666;8.114;2023-02-11T08:16:52;102155.75;;;-0.76;92.26
75538;BME280;64121;48.666;8.114;2023-02-11T08:19:18;102158.50;;;-0.76;92.46
75538;BME280;64121;48.666;8.114;2023-02-11T08:21:43;102157.44;;;-0.75;92.29
75538;BME280;64121;48.666;8.114;2023-02-11T08:24:09;102160.59;;;-0.78;91.95
75538;BME280;64121;48.666;8.114;2023-02-11T08:26:36;102156.59;;;-0.76;91.85
75538;BME280;64121;48.666;8.114;2023-02-11T08:29:09;102155.50;;;-0.68;91.84
75538;BME280;64121;48.666;8.114;2023-02-11T08:31:37;102161.75;;;-0.61;91.34
75538;BME280;64121;48.666;8.114;2023-02-11T08:34:02;102154.78;;;-0.57;91.36
75538;BME280;64121;48.666;8.114;2023-02-11T08:36:31;102157.25;;;-0.49;90.44
75538;BME280;64121;48.666;8.114;2023-02-11T08:38:59;102159.94;;;-0.42;89.90
75538;BME280;64121;48.666;8.114;2023-02-11T08:41:25;102154.75;;;-0.25;89.76
75538;BME280;64121;48.666;8.114;2023-02-11T08:43:52;102153.44;;;-0.16;89.02
75538;BME280;64121;48.666;8.114;2023-02-11T08:46:18;102161.72;;;-0.05;88.78
75538;BME280;64121;48.666;8.114;2023-02-11T08:48:45;102153.25;;;0.04;89.05
75538;BME280;64121;48.666;8.114;2023-02-11T08:51:14;102155.59;;;0.18;88.61
75538;BME280;64121;48.666;8.114;2023-02-11T08:53:39;102157.97;;;0.33;89.01
75538;BME280;64121;48.666;8.114;2023-02-11T08:56:05;102159.13;;;0.44;89.19
75538;BME280;64121;48.666;8.114;2023-02-11T08:58:31;102158.56;;;0.53;89.04
75538;BME280;64121;48.666;8.114;2023-02-11T09:00:57;102165.19;;;0.64;87.72
75538;BME280;64121;48.666;8.114;2023-02-11T09:03:23;102154.75;;;0.73;87.48
75538;BME280;64121;48.666;8.114;2023-02-11T09:05:49;102164.13;;;0.83;86.69
75538;BME280;64121;48.666;8.114;2023-02-11T09:08:15;102166.75;;;0.90;86.84
75538;BME280;64121;48.666;8.114;2023-02-11T09:10:41;102156.31;;;0.99;86.51
75538;BME280;64121;48.666;8.114;2023-02-11T09:13:07;102152.09;;;1.14;86.50
75538;BME280;64121;48.666;8.114;2023-02-11T09:15:33;102148.47;;;1.32;86.13
75538;BME280;64121;48.666;8.114;2023-02-11T09:18:00;102146.50;;;1.51;85.98
75538;BME280;64121;48.666;8.114;2023-02-11T09:20:26;102140.16;;;1.62;85.12
75538;BME280;64121;48.666;8.114;2023-02-11T09:22:52;102127.91;;;1.76;84.27
75538;BME280;64121;48.666;8.114;2023-02-11T09:25:17;102128.38;;;1.97;84.46
75538;BME280;64121;48.666;8.114;2023-02-11T09:27:42;102125.75;;;2.13;83.04
75538;BME280;64121;48.666;8.114;2023-02-11T09:30:09;102129.34;;;2.26;82.14
75538;BME280;64121;48.666;8.114;2023-02-11T09:32:34;102121.69;;;2.28;81.09
75538;BME280;64121;48.666;8.114;2023-02-11T09:35:01;102115.66;;;2.54;80.80
75538;BME280;64121;48.666;8.114;2023-02-11T09:37:26;102111.66;;;2.73;79.61
75538;BME280;64121;48.666;8.114;2023-02-11T09:39:52;102114.94;;;2.87;79.30
75538;BME280;64121;48.666;8.114;2023-02-11T09:42:39;102117.50;;;3.06;78.30
75538;BME280;64121;48.666;8.114;2023-02-11T09:45:12;102112.44;;;3.14;77.96
75538;BME280;64121;48.666;8.114;2023-02-11T09:47:46;102123.78;;;3.18;77.72
75538;BME280;64121;48.666;8.114;2023-02-11T09:50:16;102125.66;;;3.46;77.08
75538;BME280;64121;48.666;8.114;2023-02-11T09:52:45;102120.41;;;3.61;75.71
75538;BME280;64121;48.666;8.114;2023-02-11T09:55:18;102117.75;;;3.83;75.70
75538;BME280;64121;48.666;8.114;2023-02-11T09:57:44;102123.47;;;3.98;73.70
75538;BME280;64121;48.666;8.114;2023-02-11T10:00:17;102132.50;;;4.10;70.85
75538;BME280;64121;48.666;8.114;2023-02-11T10:02:47;102143.16;;;4.07;70.40
75538;BME280;64121;48.666;8.114;2023-02-11T10:05:28;102141.97;;;4.19;71.00
75538;BME280;64121;48.666;8.114;2023-02-11T10:08:04;102153.41;;;4.28;71.15
75538;BME280;64121;48.666;8.114;2023-02-11T10:10:42;102141.06;;;4.52;69.98
75538;BME280;64121;48.666;8.114;2023-02-11T10:13:23;102150.22;;;4.58;67.65
75538;BME280;64121;48.666;8.114;2023-02-11T10:15:55;102159.59;;;4.79;67.04
75538;BME280;64121;48.666;8.114;2023-02-11T10:18:45;102161.09;;;4.86;67.13
75538;BME280;64121;48.666;8.114;2023-02-11T10:21:24;102172.06;;;5.03;65.07
75538;BME280;64121;48.666;8.114;2023-02-11T10:23:56;102168.00;;;5.11;64.35
75538;BME280;64121;48.666;8.114;2023-02-11T10:26:27;102170.53;;;5.17;64.93
75538;BME280;64121;48.666;8.114;2023-02-11T10:28:54;102168.69;;;5.23;65.18
75538;BME280;64121;48.666;8.114;2023-02-11T10:31:27;102171.09;;;5.41;65.03
75538;BME280;64121;48.666;8.114;2023-02-11T10:33:59;102160.88;;;5.74;65.03
75538;BME280;64121;48.666;8.114;2023-02-11T10:36:30;102153.22;;;5.81;63.06
75538;BME280;64121;48.666;8.114;2023-02-11T10:38:57;102157.94;;;5.86;62.46
75538;BME280;64121;48.666;8.114;2023-02-11T10:41:27;102161.00;;;5.89;63.14
75538;BME280;64121;48.666;8.114;2023-02-11T10:43:54;102150.56;;;5.91;62.70
75538;BME280;64121;48.666;8.114;2023-02-11T10:46:22;102142.19;;;5.86;63.74
75538;BME280;64121;48.666;8.114;2023-02-11T10:48:50;102135.66;;;5.92;63.70
75538;BME280;64121;48.666;8.114;2023-02-11T10:51:19;102129.34;;;5.97;62.75
75538;BME280;64121;48.666;8.114;2023-02-11T10:53:47;102125.31;;;6.15;63.06
75538;BME280;64121;48.666;8.114;2023-02-11T10:56:20;102114.31;;;6.25;62.05
75538;BME280;64121;48.666;8.114;2023-02-11T10:58:55;102112.75;;;6.39;62.48
75538;BME280;64121;48.666;8.114;2023-02-11T11:01:21;102111.94;;;6.49;61.30
75538;BME280;64121;48.666;8.114;2023-02-11T11:03:49;102106.94;;;6.41;62.54
75538;BME280;64121;48.666;8.114;2023-02-11T11:06:15;102101.59;;;6.24;61.80
75538;BME280;64121;48.666;8.114;2023-02-11T11:08:42;102090.38;;;6.46;60.69
75538;BME280;64121;48.666;8.114;2023-02-11T11:11:11;102089.53;;;6.50;61.39
75538;BME280;64121;48.666;8.114;2023-02-11T11:13:38;102080.66;;;6.33;62.11
75538;BME280;64121;48.666;8.114;2023-02-11T11:16:19;102083.84;;;6.72;60.46
75538;BME280;64121;48.666;8.114;2023-02-11T11:18:46;102076.38;;;6.78;60.07
75538;BME280;64121;48.666;8.114;2023-02-11T11:21:13;102073.94;;;7.02;59.93
75538;BME280;64121;48.666;8.114;2023-02-11T11:23:46;102066.22;;;7.09;59.17
75538;BME280;64121;48.666;8.114;2023-02-11T11:26:15;102076.78;;;7.27;57.62
75538;BME280;64121;48.666;8.114;2023-02-11T11:28:50;102077.31;;;7.34;59.26
75538;BME280;64121;48.666;8.114;2023-02-11T11:31:21;102072.03;;;7.22;58.17
75538;BME280;64121;48.666;8.114;2023-02-11T11:33:47;102080.94;;;7.45;58.85
75538;BME280;64121;48.666;8.114;2023-02-11T11:36:19;102080.66;;;7.46;59.38
75538;BME280;64121;48.666;8.114;2023-02-11T11:38:48;102079.25;;;7.74;57.20
75538;BME280;64121;48.666;8.114;2023-02-11T11:41:19;102083.69;;;7.85;56.82
75538;BME280;64121;48.666;8.114;2023-02-11T11:43:57;102072.03;;;7.88;57.02
75538;BME280;64121;48.666;8.114;2023-02-11T11:46:25;102070.13;;;7.64;57.28
75538;BME280;64121;48.666;8.114;2023-02-11T11:48:53;102065.41;;;7.84;58.32
75538;BME280;64121;48.666;8.114;2023-02-11T11:51:22;102064.81;;;7.93;57.44
75538;BME280;64121;48.666;8.114;2023-02-11T11:53:52;102057.59;;;7.97;58.22
75538;BME280;64121;48.666;8.114;2023-02-11T11:56:25;102064.53;;;7.94;58.53
75538;BME280;64121;48.666;8.114;2023-02-11T11:58:51;102068.41;;;7.98;58.36
75538;BME280;64121;48.666;8.114;2023-02-11T12:01:25;102070.28;;;8.18;57.79
75538;BME280;64121;48.666;8.114;2023-02-11T12:04:16;102063.09;;;8.22;58.23
75538;BME280;64121;48.666;8.114;2023-02-11T12:06:57;102061.69;;;8.40;58.28
75538;BME280;64121;48.666;8.114;2023-02-11T12:09:32;102064.13;;;8.52;58.64
75538;BME280;64121;48.666;8.114;2023-02-11T12:12:12;102066.84;;;8.62;58.13
75538;BME280;64121;48.666;8.114;2023-02-11T12:14:48;102068.06;;;8.35;58.33
75538;BME280;64121;48.666;8.114;2023-02-11T12:17:30;102065.28;;;8.30;59.75
75538;BME280;64121;48.666;8.114;2023-02-11T12:20:16;102060.69;;;7.70;60.57
75538;BME280;64121;48.666;8.114;2023-02-11T12:22:53;102061.00;;;7.48;62.16
75538;BME280;64121;48.666;8.114;2023-02-11T12:25:25;102057.28;;;8.18;60.77
75538;BME280;64121;48.666;8.114;2023-02-11T12:28:00;102068.88;;;8.46;59.60
75538;BME280;64121;48.666;8.114;2023-02-11T12:30:44;102061.13;;;8.28;60.46
75538;BME280;64121;48.666;8.114;2023-02-11T12:33:22;102053.28;;;8.60;60.28
75538;BME280;64121;48.666;8.114;2023-02-11T12:35:55;102050.13;;;8.77;60.45
75538;BME280;64121;48.666;8.114;2023-02-11T12:38:34;102054.88;;;9.16;58.49
75538;BME280;64121;48.666;8.114;2023-02-11T12:41:13;102047.03;;;9.23;58.98
75538;BME280;64121;48.666;8.114;2023-02-11T12:43:44;102044.16;;;9.38;58.10
75538;BME280;64121;48.666;8.114;2023-02-11T12:46:32;102035.59;;;8.90;59.29
75538;BME280;64121;48.666;8.114;2023-02-11T12:49:20;102032.72;;;9.05;60.26
75538;BME280;64121;48.666;8.114;2023-02-11T12:52:00;102033.84;;;8.60;60.82
75538;BME280;64121;48.666;8.114;2023-02-11T12:54:30;102030.81;;;8.52;59.94
75538;BME280;64121;48.666;8.114;2023-02-11T12:57:01;102029.50;;;8.39;61.95
75538;BME280;64121;48.666;8.114;2023-02-11T12:59:33;102033.50;;;8.72;60.88
75538;BME280;64121;48.666;8.114;2023-02-11T13:02:09;102026.00;;;8.72;59.65
75538;BME280;64121;48.666;8.114;2023-02-11T13:04:37;102018.16;;;8.85;61.18
75538;BME280;64121;48.666;8.114;2023-02-11T13:07:11;102010.81;;;9.04;61.23